Lovelock, NV

7:38 PM PDT on July 26, 2016 (GMT -0700)
Derby | | Change Station
Active Advisory: Heat Advisory

Elev 3904 ft 40.07 °N, 118.57 °W | Updated 45 minutes ago

Clear
Clear
99 °F
Feels Like 99 °F
N
15
Wind Variable Wind from WNW
Gusts 18 mph

Today
High -- | Low -- °F
--% Chance of Precip.
Yesterday
High -- | Low -- °F
Precip. -- in
Pressure 29.85 in
Visibility 10.0 miles
Clouds Clear
Dew Point 16 °F
Humidity 5%
Rainfall 0.00 in
Snow Depth Not available.
5:47 AM 8:13 PM
Waning Gibbous, 48% visible
METAR KLOL 270153Z AUTO 30013G16KT 10SM CLR 37/M09 A2999 RMK AO2 SLP108 T03721089
Pressure 29.85 in
Visibility 10.0 miles
Clouds Clear
Dew Point 16 °F
Humidity 5%
Rainfall 0.00 in
Snow Depth Not available.
5:47 AM 8:13 PM
Waning Gibbous, 48% visible
METAR KLOL 270153Z AUTO 30013G16KT 10SM CLR 37/M09 A2999 RMK AO2 SLP108 T03721089

10-Day Weather Forecast

Almanac

Astronomy

Jul. 26, 2016 Rise Set
Actual Time
Civil Twilight
Nautical Twilight
Astronomical Twilight
Moon
Length of Visible Light
Length of Day
Tomorrow will be .
, % of the Moon is Illuminated

Today's Extremes

State Highs State Lows

Community

WunderPhotos

Upload Photos

1,927,779 photos uploaded!

WunderBlog® & News

Nearby

Air Quality

  Air Quality AQ Index Pollutant
Not available.

Snow Depth

Station Depth Elevation

Earthquake Activity

City Distance Mag. Time & Date
Minimum magnitude displayed is 2.5.

Coastal Water Temperatures

Place Temperature

Stations

Nearby Weather Stations

Station Location Temp. Windchill Dew Point Humidity Wind Precip. Elev Updated Type
                   

Watches & Warnings

Heat Advisory
Issued: 1:42 PM PDT Jul. 26, 2016 – National Weather Service

... Heat advisory remains in effect from 11 am Wednesday to 11 PM
PDT Friday...

* temperature: high temperatures of 103 to 108 degrees are
expected for valleys Wednesday through Friday. Overnight lows
will be in the upper 50s to upper 60s.

* Impacts: hot temperatures each afternoon will increase the
threat of heat related illnesses.

Precautionary/preparedness actions...

Take extra precautions if you work or spend time outside. When
possible... reschedule strenuous activities to early morning or
evening. Wear light weight and loose fitting clothing when
possible and drink plenty of water. Young children and pets
should never be left unattended in vehicles under any
circumstances. This is especially true during warm or hot weather
when car interiors can reach lethal temperatures in a matter of
minutes. Anyone overcome by heat should be moved to a cool and
shaded location. Heat stroke is an emergency... call 9 1 1.



Http://weather.Gov/Reno